Deva Mariya — UUCU — position and weather

sailwx.info

Track history (hours):
 
Tides and Currents Weather Stations Pressure Air Temp Water Temp Dewpoint Dewpoint Depression Visibility Wind Speed Wind Dir Waves Ship Positions

Deva Mariya

Last reported at 2017-Dec-11 11:00 UTC. Time now 2017-Dec-11 11:18 UTC.
Position N 47°42' E 035°08'.

Length 46 m; draft 3.3 m.

Type: Cargo ship. MMSI: 272068700.

Date/timePositionNaut miles runAvg speedWind from/ knotsBaromVisibWave heightAir tempDewpointWater temp
2017-Dec-11 11:00N 47°42' E 035°08'3 5.7
2017-Dec-11 10:30N 47°39' E 035°06'3 6.1
2017-Dec-11 09:59N 47°37' E 035°03'  
2017-Dec-08 05:18N 46°30' E 032°04'0 0.0
2017-Dec-08 04:54N 46°30' E 032°04'0 0.0
2017-Dec-08 02:06N 46°30' E 032°04'0 0.0
2017-Dec-08 01:41N 46°30' E 032°04'0 0.0
2017-Dec-08 01:29N 46°30' E 032°04'0 0.0
2017-Dec-08 01:00N 46°30' E 032°04'6 0.4
2017-Dec-07 08:24N 46°33' E 031°58'3 6.1
2017-Dec-07 07:56N 46°34' E 031°54'  
2017-Dec-04 10:23N 47°34' E 035°02'2 5.5
2017-Dec-04 10:00N 47°36' E 035°03'3 5.8
2017-Dec-04 09:30N 47°39' E 035°06'3 6.3
2017-Dec-04 09:00N 47°41' E 035°08'3 6.0
2017-Dec-04 08:30N 47°44' E 035°10'3 6.2
2017-Dec-04 08:00N 47°47' E 035°10'3 5.9
2017-Dec-04 07:30N 47°50' E 035°07'2 4.9
2017-Dec-04 07:00N 47°52' E 035°05'0 0.0
2017-Dec-04 06:30N 47°52' E 035°05'0 0.0
2017-Dec-04 06:00N 47°52' E 035°05'0 0.4
2017-Dec-04 05:30N 47°52' E 035°05'0 0.0
2017-Dec-04 05:00N 47°52' E 035°05'0 0.6
2017-Dec-04 04:30N 47°52' E 035°06'0 0.9
2017-Dec-04 04:00N 47°52' E 035°06'0 0.0
2017-Dec-04 03:30N 47°52' E 035°06'0 0.0
2017-Dec-04 03:00N 47°52' E 035°06'0 0.0
2017-Dec-04 02:30N 47°52' E 035°06'0 0.0
2017-Dec-04 02:00N 47°52' E 035°06'0 0.0
2017-Dec-04 01:30N 47°52' E 035°06'0 0.0
2017-Dec-04 01:00N 47°52' E 035°06'0 0.0
2017-Dec-04 00:30N 47°52' E 035°06'0 0.0
2017-Dec-04 00:00N 47°52' E 035°06'0 0.0
2017-Dec-03 23:30N 47°52' E 035°06'0 0.0
2017-Dec-03 23:00N 47°52' E 035°06'0 0.0
2017-Dec-03 22:30N 47°52' E 035°06'0 0.0
2017-Dec-03 22:00N 47°52' E 035°06'0 0.0
2017-Dec-03 21:30N 47°52' E 035°06'0 0.0
2017-Dec-03 21:00N 47°52' E 035°06'0 0.0
2017-Dec-03 20:30N 47°52' E 035°06'0 0.0
2017-Dec-03 20:00N 47°52' E 035°06'0 0.0
2017-Dec-03 19:30N 47°52' E 035°06'0 0.0
2017-Dec-03 19:00N 47°52' E 035°06'0 0.0
2017-Dec-03 18:30N 47°52' E 035°06'0 0.0
2017-Dec-03 18:00N 47°52' E 035°06'0 0.0
2017-Dec-03 17:30N 47°52' E 035°06'0 0.1
2017-Dec-03 17:00N 47°52' E 035°06'1 1.7
2017-Dec-03 16:30N 47°53' E 035°06'3 5.6
2017-Dec-03 16:00N 47°56' E 035°07'3 5.5
2017-Dec-03 15:30N 47°58' E 035°07'3 5.5
2017-Dec-03 15:00N 48°01' E 035°08'3 5.4
2017-Dec-03 14:30N 48°03' E 035°06'  
Track history (hours):
 
Tides and Currents Weather Stations Pressure Air Temp Water Temp Dewpoint Dewpoint Depression Visibility Wind Speed Wind Dir Waves Ship Positions

Deva Mariya

Last reported at 2017-Dec-11 11:00 UTC. Time now 2017-Dec-11 11:18 UTC.
Position N 47°42' E 035°08'.

Length 46 m; draft 3.3 m.

Type: Cargo ship. MMSI: 272068700.

Date/timePositionNaut miles runAvg speedWind from/ knotsBaromVisibWave heightAir tempDewpointWater temp
2017-Dec-11 11:00N 47°42' E 035°08'3 5.7
2017-Dec-11 10:30N 47°39' E 035°06'3 6.1
2017-Dec-11 09:59N 47°37' E 035°03'  
2017-Dec-08 05:18N 46°30' E 032°04'0 0.0
2017-Dec-08 04:54N 46°30' E 032°04'0 0.0
2017-Dec-08 02:06N 46°30' E 032°04'0 0.0
2017-Dec-08 01:41N 46°30' E 032°04'0 0.0
2017-Dec-08 01:29N 46°30' E 032°04'0 0.0
2017-Dec-08 01:00N 46°30' E 032°04'6 0.4
2017-Dec-07 08:24N 46°33' E 031°58'3 6.1
2017-Dec-07 07:56N 46°34' E 031°54'  
2017-Dec-04 10:23N 47°34' E 035°02'2 5.5
2017-Dec-04 10:00N 47°36' E 035°03'3 5.8
2017-Dec-04 09:30N 47°39' E 035°06'3 6.3
2017-Dec-04 09:00N 47°41' E 035°08'3 6.0
2017-Dec-04 08:30N 47°44' E 035°10'3 6.2
2017-Dec-04 08:00N 47°47' E 035°10'3 5.9
2017-Dec-04 07:30N 47°50' E 035°07'2 4.9
2017-Dec-04 07:00N 47°52' E 035°05'0 0.0
2017-Dec-04 06:30N 47°52' E 035°05'0 0.0
2017-Dec-04 06:00N 47°52' E 035°05'0 0.4
2017-Dec-04 05:30N 47°52' E 035°05'0 0.0
2017-Dec-04 05:00N 47°52' E 035°05'0 0.6
2017-Dec-04 04:30N 47°52' E 035°06'0 0.9
2017-Dec-04 04:00N 47°52' E 035°06'0 0.0
2017-Dec-04 03:30N 47°52' E 035°06'0 0.0
2017-Dec-04 03:00N 47°52' E 035°06'0 0.0
2017-Dec-04 02:30N 47°52' E 035°06'0 0.0
2017-Dec-04 02:00N 47°52' E 035°06'0 0.0
2017-Dec-04 01:30N 47°52' E 035°06'0 0.0
2017-Dec-04 01:00N 47°52' E 035°06'0 0.0
2017-Dec-04 00:30N 47°52' E 035°06'0 0.0
2017-Dec-04 00:00N 47°52' E 035°06'0 0.0
2017-Dec-03 23:30N 47°52' E 035°06'0 0.0
2017-Dec-03 23:00N 47°52' E 035°06'0 0.0
2017-Dec-03 22:30N 47°52' E 035°06'0 0.0
2017-Dec-03 22:00N 47°52' E 035°06'0 0.0
2017-Dec-03 21:30N 47°52' E 035°06'0 0.0
2017-Dec-03 21:00N 47°52' E 035°06'0 0.0
2017-Dec-03 20:30N 47°52' E 035°06'0 0.0
2017-Dec-03 20:00N 47°52' E 035°06'0 0.0
2017-Dec-03 19:30N 47°52' E 035°06'0 0.0
2017-Dec-03 19:00N 47°52' E 035°06'0 0.0
2017-Dec-03 18:30N 47°52' E 035°06'0 0.0
2017-Dec-03 18:00N 47°52' E 035°06'0 0.0
2017-Dec-03 17:30N 47°52' E 035°06'0 0.1
2017-Dec-03 17:00N 47°52' E 035°06'1 1.7
2017-Dec-03 16:30N 47°53' E 035°06'3 5.6
2017-Dec-03 16:00N 47°56' E 035°07'3 5.5
2017-Dec-03 15:30N 47°58' E 035°07'3 5.5
2017-Dec-03 15:00N 48°01' E 035°08'3 5.4
2017-Dec-03 14:30N 48°03' E 035°06'  

Dump ship's entire track history